Time;durP1;ratioP1;P1;durP2;ratioP2;P2;SDS_P1;SDS_P2;PMS_P1;PMS_P2;Temp;Humidity;BMP_temperature;BMP_pressure;BME280_temperature;BME280_humidity;BME280_pressure;Samples;Min_cycle;Max_cycle;Signal;HPM_P1;HPM_P2
2023/06/23 00:02:16;;;;;;;1.00;1.00;;;21.60;99.90;;;;;;5056640;28;20079;-76
2023/06/23 00:04:42;;;;;;;1.77;1.65;;;21.60;99.90;;;;;;5056855;28;20036;-78
2023/06/23 00:07:08;;;;;;;1.58;1.48;;;21.50;99.90;;;;;;5056805;28;20054;-74
2023/06/23 00:09:36;;;;;;;0.40;0.40;;;21.50;99.90;;;;;;5057023;28;20105;-74
2023/06/23 00:12:02;;;;;;;0.20;0.20;;;21.40;99.90;;;;;;5056755;28;20086;-74
2023/06/23 00:14:28;;;;;;;0.10;0.10;;;;;;;;;;5056698;28;20057;-73
2023/06/23 00:16:54;;;;;;;0.10;0.10;;;21.40;99.90;;;;;;5056662;28;20055;-73
2023/06/23 00:19:19;;;;;;;0.20;0.20;;;21.30;99.90;;;;;;5038456;28;20498;-73
2023/06/23 00:21:46;;;;;;;0.52;0.52;;;21.20;99.90;;;;;;5038459;28;20229;-73
2023/06/23 00:24:11;;;;;;;0.20;0.20;;;21.20;99.90;;;;;;5056473;28;20248;-75
2023/06/23 00:26:37;;;;;;;0.10;0.10;;;21.20;99.90;;;;;;5056825;28;20029;-72
2023/06/23 00:29:05;;;;;;;2.83;0.45;;;21.10;99.90;;;;;;5056903;28;20027;-77
2023/06/23 00:31:31;;;;;;;0.82;0.82;;;21.10;99.90;;;;;;5056946;28;20665;-75
2023/06/23 00:33:56;;;;;;;1.42;1.35;;;21.10;99.90;;;;;;5056822;28;20108;-74
2023/06/23 00:36:22;;;;;;;0.10;0.10;;;21.10;99.90;;;;;;5056863;28;20422;-73
2023/06/23 00:38:48;;;;;;;19.65;2.92;;;21.10;99.90;;;;;;5056792;28;20325;-76
2023/06/23 00:41:13;;;;;;;0.20;0.20;;;21.10;99.90;;;;;;5056858;28;20103;-75
2023/06/23 00:43:39;;;;;;;0.43;0.43;;;21.00;99.90;;;;;;5056660;28;20422;-73
2023/06/23 00:46:11;;;;;;;0.17;0.17;;;21.00;99.90;;;;;;5057231;28;20032;-83
2023/06/23 00:48:37;;;;;;;0.30;0.30;;;21.00;99.90;;;;;;5058023;28;20035;-82
2023/06/23 00:51:03;;;;;;;0.10;0.10;;;21.10;99.90;;;;;;5057532;28;20241;-79
2023/06/23 00:53:29;;;;;;;0.10;0.10;;;21.10;99.90;;;;;;5059997;28;20021;-76
2023/06/23 00:55:55;;;;;;;1.73;1.63;;;21.00;99.90;;;;;;5060992;28;20036;-84
2023/06/23 00:58:21;;;;;;;1.17;1.13;;;20.90;99.90;;;;;;5060500;28;20359;-73
2023/06/23 01:00:50;;;;;;;0.10;0.10;;;20.90;99.90;;;;;;5042084;28;20033;-75
2023/06/23 01:03:15;;;;;;;0.30;0.30;;;20.90;99.90;;;;;;5060251;28;20283;-83
2023/06/23 01:05:41;;;;;;;0.10;0.10;;;20.80;99.90;;;;;;5060376;28;20309;-77
2023/06/23 01:08:15;;;;;;;3.20;3.10;;;20.70;99.90;;;;;;5060185;28;20044;-74
2023/06/23 01:10:56;;;;;;;0.10;0.10;;;20.60;99.90;;;;;;5060766;28;20094;-75
2023/06/23 01:13:34;;;;;;;0.10;0.10;;;20.60;99.90;;;;;;5060312;28;20025;-82
2023/06/23 01:16:16;;;;;;;6.35;3.67;;;20.60;99.90;;;;;;5060500;28;20024;-75
2023/06/23 01:19:13;;;;;;;0.35;0.35;;;20.50;99.90;;;;;;5059895;28;20032;-77
2023/06/23 01:21:57;;;;;;;0.10;0.10;;;20.50;99.90;;;;;;4958033;28;20041;-85
2023/06/23 01:24:55;;;;;;;0.10;0.10;;;20.50;99.90;;;;;;4958353;28;20038;-73
2023/06/23 01:27:36;;;;;;;0.10;0.10;;;20.50;99.90;;;;;;4900821;29;20036;-80
2023/06/23 01:30:05;;;;;;;0.25;0.25;;;20.50;99.90;;;;;;4900759;29;20076;-72
2023/06/23 01:32:41;;;;;;;0.43;0.43;;;18.60;99.90;;;;;;4900910;29;20032;-72
2023/06/23 01:35:12;;;;;;;3.15;3.05;;;20.20;99.90;;;;;;4900436;29;20032;-72
2023/06/23 01:37:44;;;;;;;0.20;0.20;;;20.40;99.90;;;;;;4900174;29;20033;-72
2023/06/23 01:40:13;;;;;;;0.10;0.10;;;20.40;99.90;;;;;;4885119;29;20032;-72
2023/06/23 01:42:44;;;;;;;0.38;0.38;;;20.30;99.90;;;;;;4900104;29;20326;-77
2023/06/23 01:45:13;;;;;;;1.80;1.20;;;20.30;99.90;;;;;;4901013;29;20048;-74
2023/06/23 01:47:41;;;;;;;0.73;0.73;;;20.40;99.90;;;;;;4900680;29;20437;-82
2023/06/23 01:50:12;;;;;;;1.38;1.27;;;20.30;99.90;;;;;;4885094;29;20383;-77
2023/06/23 01:52:39;;;;;;;0.50;0.50;;;20.30;99.90;;;;;;4900258;29;20071;-81
2023/06/23 01:55:07;;;;;;;0.38;0.38;;;20.30;99.90;;;;;;4900444;29;20307;-72
2023/06/23 01:57:36;;;;;;;0.55;0.55;;;20.30;99.90;;;;;;4899705;29;20893;-76
2023/06/23 02:00:05;;;;;;;0.32;0.32;;;20.20;99.90;;;;;;4957407;28;20453;-75
2023/06/23 02:02:32;;;;;;;0.10;0.10;;;20.20;99.90;;;;;;4988775;28;20041;-84
2023/06/23 02:04:59;;;;;;;0.10;0.10;;;20.10;99.90;;;;;;5058293;28;20040;-85
2023/06/23 02:07:26;;;;;;;0.10;0.10;;;20.20;99.90;;;;;;5059093;28;20513;-81
2023/06/23 02:09:53;;;;;;;4.35;4.15;;;20.10;99.90;;;;;;5041677;28;20083;-81
2023/06/23 02:12:19;;;;;;;8.60;8.13;;;20.10;99.90;;;;;;5060032;28;20032;-80
2023/06/23 02:14:47;;;;;;;0.20;0.20;;;20.10;99.90;;;;;;5040999;28;20032;-75
2023/06/23 02:17:14;;;;;;;1.08;0.63;;;20.10;99.90;;;;;;5040626;28;20067;-81
2023/06/23 02:19:44;;;;;;;4.18;1.45;;;20.00;99.90;;;;;;5059351;28;20443;-76
2023/06/23 02:22:18;;;;;;;0.40;0.40;;;20.00;99.90;;;;;;5059514;28;20023;-77
2023/06/23 02:24:44;;;;;;;;;;;19.90;99.90;;;;;;5059737;28;20028;-79
2023/06/23 02:27:11;;;;;;;0.20;0.20;;;20.00;99.90;;;;;;5058687;28;19938;-78
2023/06/23 02:29:40;;;;;;;0.38;0.38;;;19.90;99.90;;;;;;5059107;28;20218;-75
2023/06/23 02:32:07;;;;;;;0.52;0.52;;;19.90;99.90;;;;;;5058681;28;20051;-79
2023/06/23 02:34:35;;;;;;;0.55;0.55;;;19.90;99.90;;;;;;5058883;28;20029;-77
2023/06/23 02:37:08;;;;;;;0.15;0.15;;;19.90;99.90;;;;;;5058924;28;20044;-72
2023/06/23 02:39:40;;;;;;;0.10;0.10;;;19.90;99.90;;;;;;5059436;28;20046;-76
2023/06/23 02:42:07;;;;;;;0.28;0.28;;;19.90;99.90;;;;;;5058328;28;20149;-80
2023/06/23 02:44:38;;;;;;;7.55;7.05;;;19.90;99.90;;;;;;5058913;28;20040;-73
2023/06/23 02:47:10;;;;;;;0.38;0.38;;;19.90;99.90;;;;;;5057730;28;20024;-72
2023/06/23 02:49:37;;;;;;;0.20;0.20;;;19.90;99.90;;;;;;5058251;28;20025;-75
2023/06/23 02:52:05;;;;;;;0.20;0.20;;;20.30;99.90;;;;;;5057903;28;20740;-74
2023/06/23 02:54:37;;;;;;;0.13;0.13;;;20.40;99.90;;;;;;5057670;28;20043;-72
2023/06/23 02:57:05;;;;;;;0.10;0.10;;;20.20;99.90;;;;;;5057816;28;20021;-72
2023/06/23 02:59:34;;;;;;;0.10;0.10;;;20.00;99.90;;;;;;5057615;28;20024;-72
2023/06/23 03:02:01;;;;;;;0.10;0.10;;;20.00;99.90;;;;;;5057253;28;20044;-72
2023/06/23 03:04:28;;;;;;;0.20;0.20;;;20.10;99.90;;;;;;5057987;28;20055;-77
2023/06/23 03:06:53;;;;;;;1.00;1.00;;;20.00;99.90;;;;;;5057609;28;20644;-72
2023/06/23 03:09:20;;;;;;;0.10;0.10;;;20.30;99.90;;;;;;5057636;28;20460;-73
2023/06/23 03:11:45;;;;;;;0.10;0.10;;;20.20;99.90;;;;;;5039604;28;20028;-85
2023/06/23 03:14:11;;;;;;;14.15;2.55;;;20.30;99.90;;;;;;5057807;28;20025;-72
2023/06/23 03:16:37;;;;;;;0.20;0.20;;;20.40;99.90;;;;;;5057092;28;20234;-72
2023/06/23 03:19:19;;;;;;;0.10;0.10;;;20.20;99.90;;;;;;5057770;28;20026;-72
2023/06/23 03:21:53;;;;;;;0.30;0.30;;;20.20;99.90;;;;;;5039245;28;20652;-72
2023/06/23 03:24:21;;;;;;;0.10;0.10;;;20.60;99.90;;;;;;5057240;28;20029;-72
2023/06/23 03:26:49;;;;;;;0.52;0.52;;;21.00;99.90;;;;;;5057329;28;20375;-73
2023/06/23 03:29:19;;;;;;;5.43;5.00;;;21.10;99.90;;;;;;5038891;28;20227;-72
2023/06/23 03:31:49;;;;;;;6.00;5.78;;;21.10;99.90;;;;;;5057338;28;20249;-73
2023/06/23 03:34:16;;;;;;;0.30;0.30;;;21.20;99.90;;;;;;5057282;28;20028;-81
2023/06/23 03:36:44;;;;;;;0.10;0.10;;;21.00;99.90;;;;;;5058379;28;20139;-76
2023/06/23 03:39:23;;;;;;;0.90;0.90;;;21.00;99.90;;;;;;5039743;28;20549;-73
2023/06/23 03:41:49;;;;;;;0.15;0.15;;;20.60;99.90;;;;;;5057387;28;20051;-77
2023/06/23 03:44:40;;;;;;;0.10;0.10;;;20.50;99.90;;;;;;5057205;28;20487;-73
2023/06/23 03:47:27;;;;;;;4.03;3.03;;;20.50;99.90;;;;;;5057001;28;20024;-75
2023/06/23 03:50:00;;;;;;;0.57;0.57;;;20.30;99.90;;;;;;5056960;28;20118;-72
2023/06/23 03:52:28;;;;;;;0.20;0.20;;;20.10;99.90;;;;;;5057183;28;20032;-73
2023/06/23 03:54:56;;;;;;;0.10;0.10;;;20.20;99.90;;;;;;5039044;28;20325;-77
2023/06/23 03:57:26;;;;;;;0.10;0.10;;;20.20;99.90;;;;;;5057853;28;20021;-72
2023/06/23 03:59:55;;;;;;;0.10;0.10;;;20.30;99.90;;;;;;5038941;28;20028;-73
2023/06/23 04:02:23;;;;;;;0.25;0.25;;;20.40;99.90;;;;;;5058263;28;20091;-79
2023/06/23 04:04:52;;;;;;;0.20;0.20;;;20.40;99.90;;;;;;5058226;28;20507;-81
2023/06/23 04:07:19;;;;;;;0.90;0.90;;;20.60;99.90;;;;;;5058638;28;20402;-81
2023/06/23 04:09:49;;;;;;;1.20;1.10;;;20.90;99.90;;;;;;5058344;28;20633;-81
2023/06/23 04:12:17;;;;;;;0.95;0.95;;;20.90;99.90;;;;;;5057270;28;20213;-72
2023/06/23 04:14:46;;;;;;;0.45;0.45;;;20.90;99.90;;;;;;5057757;28;20028;-82
2023/06/23 04:17:13;;;;;;;3.33;1.00;;;21.20;99.90;;;;;;5057861;28;20028;-83
2023/06/23 04:19:42;;;;;;;0.93;0.93;;;20.90;99.90;;;;;;5057943;28;20028;-77
2023/06/23 04:22:08;;;;;;;0.20;0.20;;;21.10;99.90;;;;;;5040461;28;20017;-76
2023/06/23 04:24:37;;;;;;;0.20;0.20;;;21.00;99.90;;;;;;5056866;28;20061;-74
2023/06/23 04:27:05;;;;;;;0.30;0.30;;;20.80;99.90;;;;;;5039857;28;20041;-83
2023/06/23 04:29:34;;;;;;;3.08;2.83;;;21.00;99.90;;;;;;5061934;28;20535;-73
2023/06/23 04:32:01;;;;;;;0.10;0.10;;;21.10;99.90;;;;;;5062068;28;20666;-78
2023/06/23 04:34:28;;;;;;;0.20;0.20;;;20.60;99.90;;;;;;5062868;28;20031;-80
2023/06/23 04:37:06;;;;;;;0.10;0.10;;;20.50;99.90;;;;;;5043391;28;20587;-78
2023/06/23 04:39:48;;;;;;;0.20;0.20;;;20.20;99.90;;;;;;5061972;28;20036;-79
2023/06/23 04:42:16;;;;;;;0.17;0.17;;;20.30;99.90;;;;;;5061716;28;20471;-83
2023/06/23 04:44:50;;;;;;;0.40;0.40;;;20.20;99.90;;;;;;5061212;28;20055;-77
2023/06/23 04:47:20;;;;;;;1.52;1.52;;;20.20;99.90;;;;;;5061290;28;20017;-83
2023/06/23 04:49:49;;;;;;;21.35;2.33;;;20.40;99.90;;;;;;5061507;28;20025;-84
2023/06/23 04:52:18;;;;;;;0.32;0.32;;;20.60;99.90;;;;;;5060333;28;20408;-73
2023/06/23 04:54:46;;;;;;;0.40;0.40;;;20.80;99.90;;;;;;5061404;28;20036;-82
2023/06/23 04:57:16;;;;;;;0.57;0.57;;;20.90;99.90;;;;;;5063055;28;20025;-80
2023/06/23 04:59:47;;;;;;;0.40;0.40;;;20.90;99.90;;;;;;5063684;28;20335;-78
2023/06/23 05:02:14;;;;;;;0.75;0.70;;;21.00;99.90;;;;;;5064005;28;20041;-77
2023/06/23 05:04:42;;;;;;;0.20;0.20;;;21.10;99.90;;;;;;5064473;28;20233;-85
2023/06/23 05:07:11;;;;;;;0.32;0.32;;;21.10;99.90;;;;;;5044218;28;20256;-82
2023/06/23 05:09:39;;;;;;;0.10;0.10;;;21.40;99.90;;;;;;5062873;28;20028;-84
2023/06/23 05:12:08;;;;;;;0.60;0.60;;;21.20;99.90;;;;;;5062544;28;20223;-84
2023/06/23 05:14:38;;;;;;;0.10;0.10;;;21.70;99.90;;;;;;5061702;28;20033;-80
2023/06/23 05:17:06;;;;;;;0.30;0.30;;;21.60;99.90;;;;;;5060717;28;20051;-79
2023/06/23 05:19:36;;;;;;;0.15;0.15;;;21.80;99.90;;;;;;5060743;28;20568;-80
2023/06/23 05:22:08;;;;;;;0.20;0.20;;;21.90;99.90;;;;;;5060964;28;20344;-82
2023/06/23 05:24:37;;;;;;;0.30;0.30;;;21.80;99.90;;;;;;5060931;28;21049;-83
2023/06/23 05:27:08;;;;;;;2.72;1.95;;;21.70;99.90;;;;;;5060898;28;20021;-80
2023/06/23 05:29:40;;;;;;;2.08;0.68;;;21.70;99.90;;;;;;5061488;28;20027;-77
2023/06/23 05:32:10;;;;;;;0.30;0.30;;;21.80;99.90;;;;;;5061497;28;20032;-86
2023/06/23 05:34:36;;;;;;;0.17;0.17;;;22.00;99.90;;;;;;5060616;28;20028;-78
2023/06/23 05:37:04;;;;;;;0.45;0.45;;;22.30;99.90;;;;;;5061071;28;20029;-80
2023/06/23 05:39:31;;;;;;;0.20;0.20;;;22.50;99.90;;;;;;5061351;28;20016;-84
2023/06/23 05:41:57;;;;;;;0.30;0.30;;;22.70;99.90;;;;;;5042087;28;20063;-85
2023/06/23 05:44:23;;;;;;;0.10;0.10;;;22.90;99.90;;;;;;5060765;28;20040;-77
2023/06/23 05:46:53;;;;;;;11.00;10.32;;;23.10;99.90;;;;;;5060595;28;20035;-87
2023/06/23 05:49:22;;;;;;;0.85;0.55;;;23.00;99.90;;;;;;5061066;28;20102;-81
2023/06/23 05:51:57;;;;;;;2.28;2.13;;;23.00;99.90;;;;;;5060667;28;20025;-84
2023/06/23 05:54:26;;;;;;;0.15;0.15;;;23.00;99.90;;;;;;5060368;28;20032;-78
2023/06/23 05:56:57;;;;;;;0.75;0.75;;;23.00;99.90;;;;;;5060227;28;20029;-77
2023/06/23 05:59:37;;;;;;;1.35;1.27;;;23.20;99.90;;;;;;5062348;28;20426;-75
2023/06/23 06:02:05;;;;;;;0.10;0.10;;;23.30;99.90;;;;;;5061599;28;20025;-84
2023/06/23 06:04:34;;;;;;;0.10;0.10;;;23.90;99.90;;;;;;5041181;28;20123;-84
2023/06/23 06:07:01;;;;;;;0.40;0.40;;;23.50;99.90;;;;;;5040783;28;20024;-80
2023/06/23 06:09:32;;;;;;;0.10;0.10;;;23.60;99.90;;;;;;5058973;28;20017;-80
2023/06/23 06:11:58;;;;;;;0.57;0.57;;;23.60;99.90;;;;;;5058315;28;21771;-73
2023/06/23 06:14:26;;;;;;;0.10;0.10;;;23.70;99.90;;;;;;5058117;28;20116;-75
2023/06/23 06:16:53;;;;;;;0.20;0.20;;;23.60;99.90;;;;;;5058367;28;20029;-84
2023/06/23 06:19:22;;;;;;;0.10;0.10;;;23.60;99.90;;;;;;5057630;28;20131;-79
2023/06/23 06:21:50;;;;;;;3.03;2.08;;;23.80;99.90;;;;;;5058529;28;20410;-83
2023/06/23 06:24:19;;;;;;;2.55;2.45;;;23.90;99.90;;;;;;5057707;28;20024;-72
2023/06/23 06:26:46;;;;;;;0.25;0.25;;;24.10;99.90;;;;;;5057665;28;20090;-75
2023/06/23 06:29:13;;;;;;;1.38;1.38;;;24.00;99.90;;;;;;5057980;28;20016;-82
2023/06/23 06:31:40;;;;;;;0.30;0.30;;;24.20;99.90;;;;;;5057578;28;20032;-75
2023/06/23 06:34:08;;;;;;;0.20;0.20;;;24.30;99.90;;;;;;5057083;28;20017;-76
2023/06/23 06:36:36;;;;;;;3.17;1.85;;;24.40;99.90;;;;;;5057065;28;20055;-76
2023/06/23 06:39:03;;;;;;;0.30;0.30;;;24.50;99.90;;;;;;5057137;28;20131;-75
2023/06/23 06:41:34;;;;;;;0.40;0.40;;;24.50;99.90;;;;;;5056169;28;20135;-73
2023/06/23 06:44:02;;;;;;;1.38;1.20;;;24.50;99.90;;;;;;5038194;28;20028;-73
2023/06/23 06:46:30;;;;;;;5.38;3.17;;;24.60;99.90;;;;;;5056510;28;20032;-72
2023/06/23 06:48:57;;;;;;;0.30;0.30;;;24.60;99.90;;;;;;5057616;28;20020;-74
2023/06/23 06:51:26;;;;;;;1.05;1.05;;;24.70;99.90;;;;;;5056756;28;20495;-82
2023/06/23 06:53:53;;;;;;;0.32;0.32;;;24.70;99.90;;;;;;5057353;28;20396;-83
2023/06/23 06:56:20;;;;;;;0.13;0.13;;;24.90;99.90;;;;;;5057770;28;20021;-83
2023/06/23 06:58:46;;;;;;;2.03;1.52;;;25.00;99.90;;;;;;5057835;28;20031;-78
2023/06/23 07:01:13;;;;;;;0.10;0.10;;;25.00;99.90;;;;;;5038949;28;20280;-73
2023/06/23 07:03:42;;;;;;;0.10;0.10;;;25.20;99.90;;;;;;5005768;28;1460968;-73
2023/06/23 07:06:07;;;;;;;0.20;0.20;;;25.20;99.90;;;;;;5056741;28;20222;-74
2023/06/23 07:08:33;;;;;;;0.20;0.20;;;25.50;99.90;;;;;;5057178;28;20533;-74
2023/06/23 07:10:59;;;;;;;0.25;0.25;;;25.60;99.90;;;;;;5057157;28;20142;-72
2023/06/23 07:13:25;;;;;;;4.28;3.97;;;25.70;99.90;;;;;;5056778;28;20048;-72
2023/06/23 07:15:51;;;;;;;0.28;0.28;;;23.30;99.90;;;;;;5056851;28;20525;-74
2023/06/23 07:18:16;;;;;;;0.40;0.40;;;25.90;99.90;;;;;;5056892;28;20020;-72
2023/06/23 07:20:42;;;;;;;0.57;0.57;;;26.00;99.90;;;;;;5056663;28;20101;-74
2023/06/23 07:23:09;;;;;;;0.50;0.50;;;26.00;99.90;;;;;;5056763;28;20103;-74
2023/06/23 07:25:34;;;;;;;0.13;0.13;;;26.10;99.90;;;;;;5056717;28;20059;-72
2023/06/23 07:28:00;;;;;;;6.45;2.75;;;26.20;99.90;;;;;;5056793;28;20527;-73
2023/06/23 07:30:26;;;;;;;0.28;0.28;;;26.20;99.90;;;;;;5056321;28;20570;-73
2023/06/23 07:32:53;;;;;;;3.10;1.45;;;26.40;99.90;;;;;;5056533;28;20024;-73
2023/06/23 07:35:19;;;;;;;0.10;0.10;;;26.50;99.90;;;;;;5056781;28;20023;-73
2023/06/23 07:37:45;;;;;;;0.32;0.32;;;26.50;99.90;;;;;;5056935;28;20020;-73
2023/06/23 07:40:11;;;;;;;1.23;0.98;;;26.70;99.90;;;;;;5038101;28;20055;-73
2023/06/23 07:42:37;;;;;;;0.93;0.88;;;26.90;99.90;;;;;;5056643;28;20025;-73
2023/06/23 07:45:03;;;;;;;0.57;0.38;;;26.90;99.90;;;;;;5058046;28;20813;-73
2023/06/23 07:47:29;;;;;;;1.15;1.15;;;26.90;99.90;;;;;;5057754;28;20107;-81
2023/06/23 07:49:55;;;;;;;0.30;0.30;;;27.10;99.90;;;;;;5058331;28;20104;-74
2023/06/23 07:52:21;;;;;;;0.28;0.28;;;27.30;99.90;;;;;;5041374;28;20016;-80
2023/06/23 07:54:47;;;;;;;1.40;1.30;;;27.40;99.90;;;;;;5059078;28;20324;-78
2023/06/23 07:57:13;;;;;;;1.25;1.15;;;27.60;99.90;;;;;;5059511;28;20115;-78
2023/06/23 07:59:39;;;;;;;1.95;1.38;;;27.70;99.90;;;;;;5061221;28;20068;-85
2023/06/23 08:02:05;;;;;;;3.50;0.85;;;27.80;99.90;;;;;;5061701;28;20772;-82
2023/06/23 08:04:31;;;;;;;1.90;1.75;;;27.90;99.90;;;;;;5064218;28;20028;-78
2023/06/23 08:06:56;;;;;;;0.57;0.57;;;27.80;99.90;;;;;;5045685;28;20056;-76
2023/06/23 08:09:22;;;;;;;0.10;0.10;;;27.90;99.90;;;;;;5064946;28;20536;-80
2023/06/23 08:11:48;;;;;;;1.95;1.85;;;28.00;99.90;;;;;;5065588;28;20028;-78
2023/06/23 08:14:13;;;;;;;0.30;0.30;;;28.10;99.90;;;;;;5066934;28;20025;-79
2023/06/23 08:16:39;;;;;;;0.80;0.43;;;28.10;99.90;;;;;;5065644;28;20029;-80
2023/06/23 08:19:05;;;;;;;0.55;0.55;;;28.30;99.90;;;;;;5065901;28;20563;-81
2023/06/23 08:21:31;;;;;;;0.77;0.43;;;28.60;99.90;;;;;;5065367;28;20024;-81
2023/06/23 08:23:57;;;;;;;0.10;0.10;;;28.80;99.90;;;;;;5061453;28;20678;-79
2023/06/23 08:26:23;;;;;;;3.83;0.98;;;29.00;99.90;;;;;;5044728;28;20091;-78
2023/06/23 08:28:49;;;;;;;0.77;0.77;;;29.20;99.90;;;;;;5062539;28;20536;-85
2023/06/23 08:31:15;;;;;;;0.90;0.75;;;29.30;99.90;;;;;;5044885;28;20536;-79
2023/06/23 08:33:41;;;;;;;0.20;0.20;;;29.60;99.90;;;;;;5062297;28;20082;-76
2023/06/23 08:36:07;;;;;;;0.30;0.30;;;29.50;99.90;;;;;;5062799;28;20438;-79
2023/06/23 08:38:33;;;;;;;0.77;0.45;;;29.50;99.90;;;;;;5044285;28;20041;-75
2023/06/23 08:40:59;;;;;;;1.70;1.27;;;29.80;99.90;;;;;;5063912;28;20050;-81
2023/06/23 08:43:28;;;;;;;0.40;0.40;;;30.00;99.70;;;;;;5063454;28;20020;-82
2023/06/23 08:45:56;;;;;;;3.20;2.15;;;30.20;99.80;;;;;;5063679;28;20199;-83
2023/06/23 08:48:27;;;;;;;1.00;0.93;;;30.00;98.90;;;;;;5061722;28;20016;-76
2023/06/23 08:50:59;;;;;;;6.85;6.30;;;30.10;99.00;;;;;;5060584;28;20096;-75
2023/06/23 08:53:25;;;;;;;0.50;0.50;;;30.20;99.00;;;;;;5060632;28;20028;-75
2023/06/23 08:55:52;;;;;;;2.88;2.67;;;30.30;98.70;;;;;;5042957;28;20035;-73
2023/06/23 08:58:20;;;;;;;0.55;0.50;;;30.40;99.10;;;;;;5060652;28;20012;-73
2023/06/23 09:00:51;;;;;;;3.65;3.35;;;33.10;99.40;;;;;;5060272;28;20017;-73
2023/06/23 09:03:17;;;;;;;0.55;0.55;;;30.80;97.80;;;;;;5059726;28;20040;-80
2023/06/23 09:05:43;;;;;;;1.98;0.98;;;31.10;98.70;;;;;;5040933;28;20040;-73
2023/06/23 09:08:10;;;;;;;1.40;1.33;;;31.40;97.40;;;;;;5059355;28;20017;-75
2023/06/23 09:10:36;;;;;;;2.13;0.50;;;31.30;96.80;;;;;;5059063;28;20196;-76
2023/06/23 09:13:41;;;;;;;0.55;0.55;;;31.40;96.20;;;;;;5058637;28;20302;-73
2023/06/23 09:16:09;;;;;;;2.38;1.63;;;31.60;96.50;;;;;;5058199;28;20040;-76
2023/06/23 09:18:40;;;;;;;5.05;2.35;;;31.60;96.20;;;;;;5059431;28;20616;-77
2023/06/23 09:21:07;;;;;;;0.55;0.55;;;31.90;95.10;;;;;;5059288;28;20601;-77
2023/06/23 09:23:34;;;;;;;8.95;8.05;;;32.20;96.10;;;;;;5059964;28;20017;-73
2023/06/23 09:26:04;;;;;;;4.18;2.90;;;32.50;94.50;;;;;;5059972;28;20045;-74
2023/06/23 09:28:37;;;;;;;0.30;0.30;;;33.20;93.50;;;;;;5042968;28;20031;-79
2023/06/23 09:31:10;;;;;;;1.75;0.63;;;32.60;93.00;;;;;;5042288;28;20029;-72
2023/06/23 09:33:49;;;;;;;1.30;0.90;;;32.90;93.10;;;;;;5060998;28;20021;-79
2023/06/23 09:36:15;;;;;;;1.35;0.50;;;32.70;91.70;;;;;;5061061;28;20031;-74
2023/06/23 09:38:40;;;;;;;0.65;0.60;;;33.00;91.20;;;;;;5043375;28;20029;-76
2023/06/23 09:41:14;;;;;;;3.78;2.35;;;33.00;91.20;;;;;;5043773;28;20063;-74
2023/06/23 09:43:42;;;;;;;3.15;2.45;;;33.10;91.00;;;;;;5042967;28;20036;-74
2023/06/23 09:46:13;;;;;;;0.32;0.30;;;33.30;90.60;;;;;;5060050;28;20040;-79
2023/06/23 09:48:47;;;;;;;0.68;0.68;;;33.50;90.00;;;;;;5060027;28;20040;-75
2023/06/23 09:51:13;;;;;;;1.35;1.13;;;33.60;87.80;;;;;;5059711;28;20092;-73
2023/06/23 09:53:41;;;;;;;0.10;0.10;;;33.80;87.20;;;;;;5059550;28;20044;-73
2023/06/23 09:56:13;;;;;;;2.88;2.05;;;33.70;86.40;;;;;;5059005;28;20078;-74
2023/06/23 09:58:40;;;;;;;0.70;0.63;;;33.70;85.70;;;;;;5059241;28;20195;-76
2023/06/23 10:01:11;;;;;;;0.20;0.20;;;33.80;84.40;;;;;;5039834;28;20031;-78
2023/06/23 10:03:52;;;;;;;0.47;0.47;;;33.80;84.80;;;;;;5041630;28;20044;-75
2023/06/23 10:06:22;;;;;;;1.23;1.13;;;33.60;82.70;;;;;;5059052;28;20024;-85
2023/06/23 10:08:51;;;;;;;1.33;1.23;;;34.20;81.40;;;;;;5059634;28;20024;-76
2023/06/23 10:11:29;;;;;;;0.38;0.38;;;34.50;80.70;;;;;;5040887;28;20040;-75
2023/06/23 10:14:01;;;;;;;10.32;3.70;;;34.50;79.90;;;;;;5058746;28;20028;-73
2023/06/23 10:16:28;;;;;;;1.77;0.85;;;34.70;79.30;;;;;;5041226;28;20040;-79
2023/06/23 10:18:54;;;;;;;13.32;2.63;;;34.80;77.00;;;;;;5044762;28;20016;-80
2023/06/23 10:21:21;;;;;;;2.90;1.27;;;34.70;75.90;;;;;;5061360;28;20028;-74
2023/06/23 10:23:49;;;;;;;1.33;0.95;;;34.60;72.40;;;;;;5060788;28;20091;-83
2023/06/23 10:26:16;;;;;;;2.38;2.17;;;34.70;74.00;;;;;;5058547;28;20035;-76
2023/06/23 10:28:49;;;;;;;0.40;0.38;;;34.70;71.20;;;;;;5059361;28;20021;-82
2023/06/23 10:31:15;;;;;;;;;;;34.90;71.70;;;;;;5061677;28;20032;-74
2023/06/23 10:33:42;;;;;;;1.50;1.40;;;35.10;73.00;;;;;;5060040;28;19905;-78
2023/06/23 10:36:09;;;;;;;4.38;0.95;;;35.30;70.70;;;;;;5059444;28;20682;-76
2023/06/23 10:38:42;;;;;;;6.45;1.98;;;35.60;69.30;;;;;;5060066;28;20063;-83
2023/06/23 10:41:11;;;;;;;0.30;0.30;;;35.60;69.50;;;;;;5042090;28;20478;-77
2023/06/23 10:43:39;;;;;;;1.20;0.85;;;35.50;69.70;;;;;;5058686;28;20085;-72
2023/06/23 10:46:06;;;;;;;10.80;6.20;;;35.60;68.80;;;;;;5058909;28;20032;-74
2023/06/23 10:48:32;;;;;;;1.75;1.20;;;35.70;67.20;;;;;;5058545;28;20031;-74
2023/06/23 10:50:59;;;;;;;0.30;0.30;;;36.00;68.00;;;;;;5058786;28;20028;-76
2023/06/23 10:53:32;;;;;;;0.70;0.57;;;36.10;65.80;;;;;;5059237;28;20051;-74
2023/06/23 10:55:59;;;;;;;0.30;0.30;;;36.20;64.70;;;;;;5060441;28;20542;-82
2023/06/23 10:58:26;;;;;;;0.20;0.20;;;36.40;63.80;;;;;;5062414;28;20048;-76
2023/06/23 11:00:54;;;;;;;2.30;0.80;;;36.50;64.60;;;;;;5059282;28;20103;-75
2023/06/23 11:03:27;;;;;;;0.28;0.28;;;36.60;64.20;;;;;;5058798;28;20068;-74
2023/06/23 11:05:54;;;;;;;;;;;36.70;65.80;;;;;;5059170;28;20086;-75
2023/06/23 11:08:31;;;;;;;0.98;0.95;;;36.60;66.40;;;;;;5041022;28;20003;-74
2023/06/23 11:11:05;;;;;;;0.77;0.45;;;36.90;67.20;;;;;;5058624;28;20035;-79
2023/06/23 11:13:46;;;;;;;0.50;0.50;;;37.40;66.60;;;;;;5058819;28;20556;-78
2023/06/23 11:16:39;;;;;;;0.52;0.50;;;37.80;67.70;;;;;;5058458;28;20023;-75
2023/06/23 11:19:05;;;;;;;;;;;37.50;66.50;;;;;;5036952;28;20170;-74
2023/06/23 11:21:31;;;;;;;3.65;1.50;;;37.80;66.70;;;;;;5058975;28;20002;-74
2023/06/23 11:24:19;;;;;;;0.30;0.30;;;38.10;64.70;;;;;;5059056;28;20651;-74
2023/06/23 11:26:52;;;;;;;1.35;1.20;;;38.30;64.10;;;;;;5040472;28;20608;-73
2023/06/23 11:29:21;;;;;;;2.63;1.38;;;38.40;63.50;;;;;;5059060;28;20181;-73
2023/06/23 11:32:12;;;;;;;2.08;1.88;;;38.40;59.90;;;;;;5040370;28;20229;-73
2023/06/23 11:35:01;;;;;;;5.93;0.30;;;38.90;59.00;;;;;;5058520;28;20017;-74
2023/06/23 11:37:31;;;;;;;5.22;2.47;;;39.10;59.10;;;;;;5057996;28;20027;-74
2023/06/23 11:39:57;;;;;;;1.17;0.52;;;39.20;59.10;;;;;;5058021;28;20031;-74
2023/06/23 11:42:24;;;;;;;0.32;0.15;;;38.90;59.60;;;;;;5057973;28;20032;-74
2023/06/23 11:44:50;;;;;;;4.05;3.72;;;38.90;59.70;;;;;;5058344;28;20064;-76
2023/06/23 11:47:22;;;;;;;9.07;4.50;;;38.70;58.00;;;;;;5058447;28;20210;-74
2023/06/23 11:49:47;;;;;;;;;;;38.40;58.50;;;;;;5059283;28;20016;-83
2023/06/23 11:52:13;;;;;;;0.65;0.65;;;38.00;58.40;;;;;;5058115;28;19912;-77
2023/06/23 11:54:40;;;;;;;3.30;0.43;;;37.90;57.80;;;;;;5058558;28;20572;-77
2023/06/23 11:57:07;;;;;;;0.80;0.47;;;38.00;57.60;;;;;;5058129;28;20044;-86
2023/06/23 11:59:34;;;;;;;2.95;2.55;;;38.00;58.90;;;;;;5040135;28;20024;-75
2023/06/23 12:02:00;;;;;;;0.52;0.52;;;38.20;58.80;;;;;;5040081;28;20078;-79
2023/06/23 12:04:26;;;;;;;1.08;0.63;;;38.30;58.40;;;;;;5057833;28;20033;-79
2023/06/23 12:06:52;;;;;;;5.18;2.15;;;38.30;57.10;;;;;;5057818;28;20028;-83
2023/06/23 12:09:20;;;;;;;2.28;1.92;;;38.60;56.90;;;;;;5058038;28;20048;-78
2023/06/23 12:11:47;;;;;;;1.42;1.35;;;39.00;56.30;;;;;;5057520;28;20027;-75
2023/06/23 12:14:13;;;;;;;1.08;1.00;;;35.60;48.70;;;;;;5058046;28;20021;-79
2023/06/23 12:16:39;;;;;;;0.95;0.88;;;40.10;51.50;;;;;;5057344;28;20100;-80
2023/06/23 12:19:04;;;;;;;0.25;0.22;;;39.90;51.40;;;;;;5057853;28;20024;-86
2023/06/23 12:21:32;;;;;;;3.55;2.78;;;40.70;52.50;;;;;;5040349;28;20032;-75
2023/06/23 12:23:58;;;;;;;1.75;1.65;;;40.70;50.60;;;;;;5058016;28;20048;-75
2023/06/23 12:26:24;;;;;;;4.03;0.90;;;41.40;50.80;;;;;;5039604;28;20036;-75
2023/06/23 12:28:50;;;;;;;2.67;2.20;;;41.90;50.40;;;;;;5058230;28;20024;-75
2023/06/23 12:31:26;;;;;;;0.30;0.30;;;42.10;48.90;;;;;;5057943;28;20074;-77
2023/06/23 12:33:52;;;;;;;1.20;0.20;;;42.30;50.20;;;;;;5059020;28;20008;-75
2023/06/23 12:36:18;;;;;;;0.77;0.77;;;42.10;50.00;;;;;;5058386;28;20593;-76
2023/06/23 12:38:52;;;;;;;0.10;0.10;;;42.50;50.00;;;;;;5040025;28;20097;-75
2023/06/23 12:41:23;;;;;;;6.18;0.75;;;42.40;49.20;;;;;;5058390;28;20078;-80
2023/06/23 12:43:52;;;;;;;2.67;2.45;;;42.30;48.30;;;;;;5058987;28;20028;-77
2023/06/23 12:46:20;;;;;;;0.50;0.50;;;42.20;48.60;;;;;;5058861;28;20033;-78
2023/06/23 12:48:48;;;;;;;4.90;3.30;;;42.80;49.80;;;;;;5061787;28;20017;-80
2023/06/23 12:51:14;;;;;;;0.50;0.40;;;43.20;49.20;;;;;;5065159;28;20017;-76
2023/06/23 12:53:41;;;;;;;0.20;0.20;;;43.70;48.90;;;;;;5069424;28;20078;-82
2023/06/23 12:56:08;;;;;;;0.20;0.20;;;44.10;48.80;;;;;;5073343;28;20635;-76
2023/06/23 12:58:34;;;;;;;0.85;0.35;;;44.50;47.80;;;;;;5071363;28;20046;-77